sensor_id;sensor_type;location;lat;lon;timestamp;temperature;humidity
16038;DHT22;8123;50.906;6.172;2022-11-12T00:00:18;6.00;99.90
16038;DHT22;8123;50.906;6.172;2022-11-12T00:02:44;5.80;99.90
16038;DHT22;8123;50.906;6.172;2022-11-12T00:05:10;5.80;99.90
16038;DHT22;8123;50.906;6.172;2022-11-12T00:07:35;5.80;99.90
16038;DHT22;8123;50.906;6.172;2022-11-12T00:10:01;5.80;99.90
16038;DHT22;8123;50.906;6.172;2022-11-12T00:12:27;5.70;99.90
16038;DHT22;8123;50.906;6.172;2022-11-12T00:14:53;5.90;99.90
16038;DHT22;8123;50.906;6.172;2022-11-12T00:17:18;5.70;99.90
16038;DHT22;8123;50.906;6.172;2022-11-12T00:19:44;5.60;99.90
16038;DHT22;8123;50.906;6.172;2022-11-12T00:22:09;5.90;99.90
16038;DHT22;8123;50.906;6.172;2022-11-12T00:24:35;5.90;99.90
16038;DHT22;8123;50.906;6.172;2022-11-12T00:27:01;5.60;99.90
16038;DHT22;8123;50.906;6.172;2022-11-12T00:29:26;5.60;99.90
16038;DHT22;8123;50.906;6.172;2022-11-12T00:31:52;5.90;99.90
16038;DHT22;8123;50.906;6.172;2022-11-12T00:34:18;5.60;99.90
16038;DHT22;8123;50.906;6.172;2022-11-12T00:36:44;5.60;99.90
16038;DHT22;8123;50.906;6.172;2022-11-12T00:39:10;5.80;99.90
16038;DHT22;8123;50.906;6.172;2022-11-12T00:41:35;5.60;99.90
16038;DHT22;8123;50.906;6.172;2022-11-12T00:44:01;5.90;99.90
16038;DHT22;8123;50.906;6.172;2022-11-12T00:46:26;5.60;99.90
16038;DHT22;8123;50.906;6.172;2022-11-12T00:48:52;5.80;99.90
16038;DHT22;8123;50.906;6.172;2022-11-12T00:51:18;5.60;99.90
16038;DHT22;8123;50.906;6.172;2022-11-12T00:53:49;5.60;99.90
16038;DHT22;8123;50.906;6.172;2022-11-12T00:56:15;5.60;99.90
16038;DHT22;8123;50.906;6.172;2022-11-12T00:58:41;5.80;99.90
16038;DHT22;8123;50.906;6.172;2022-11-12T01:01:11;5.80;99.90
16038;DHT22;8123;50.906;6.172;2022-11-12T01:03:38;5.50;99.90
16038;DHT22;8123;50.906;6.172;2022-11-12T01:06:11;5.60;99.90
16038;DHT22;8123;50.906;6.172;2022-11-12T01:08:38;5.50;99.90
16038;DHT22;8123;50.906;6.172;2022-11-12T01:11:09;5.80;99.90
16038;DHT22;8123;50.906;6.172;2022-11-12T01:13:37;5.50;99.90
16038;DHT22;8123;50.906;6.172;2022-11-12T01:16:07;5.50;99.90
16038;DHT22;8123;50.906;6.172;2022-11-12T01:18:33;5.50;99.90
16038;DHT22;8123;50.906;6.172;2022-11-12T01:21:04;5.70;99.90
16038;DHT22;8123;50.906;6.172;2022-11-12T01:23:38;5.60;99.90
16038;DHT22;8123;50.906;6.172;2022-11-12T01:26:05;5.60;99.90
16038;DHT22;8123;50.906;6.172;2022-11-12T01:28:31;5.60;99.90
16038;DHT22;8123;50.906;6.172;2022-11-12T01:30:57;5.60;99.90
16038;DHT22;8123;50.906;6.172;2022-11-12T01:33:23;5.60;99.90
16038;DHT22;8123;50.906;6.172;2022-11-12T01:35:49;5.70;99.90
16038;DHT22;8123;50.906;6.172;2022-11-12T01:38:14;5.80;99.90
16038;DHT22;8123;50.906;6.172;2022-11-12T01:40:40;5.80;99.90
16038;DHT22;8123;50.906;6.172;2022-11-12T01:43:12;5.80;99.90
16038;DHT22;8123;50.906;6.172;2022-11-12T01:45:41;5.60;99.90
16038;DHT22;8123;50.906;6.172;2022-11-12T01:48:27;5.60;99.90
16038;DHT22;8123;50.906;6.172;2022-11-12T01:50:54;5.60;99.90
16038;DHT22;8123;50.906;6.172;2022-11-12T01:53:22;6.00;99.90
16038;DHT22;8123;50.906;6.172;2022-11-12T01:55:49;6.00;99.90
16038;DHT22;8123;50.906;6.172;2022-11-12T01:58:18;5.60;99.90
16038;DHT22;8123;50.906;6.172;2022-11-12T02:00:44;5.70;99.90
16038;DHT22;8123;50.906;6.172;2022-11-12T02:03:19;5.70;99.90
16038;DHT22;8123;50.906;6.172;2022-11-12T02:05:48;5.60;99.90
16038;DHT22;8123;50.906;6.172;2022-11-12T02:08:15;5.60;99.90
16038;DHT22;8123;50.906;6.172;2022-11-12T02:10:41;5.60;99.90
16038;DHT22;8123;50.906;6.172;2022-11-12T02:13:07;5.90;99.90
16038;DHT22;8123;50.906;6.172;2022-11-12T02:15:52;5.70;99.90
16038;DHT22;8123;50.906;6.172;2022-11-12T02:18:17;5.90;99.90
16038;DHT22;8123;50.906;6.172;2022-11-12T02:20:44;5.60;99.90
16038;DHT22;8123;50.906;6.172;2022-11-12T02:23:09;5.60;99.90
16038;DHT22;8123;50.906;6.172;2022-11-12T02:25:36;5.70;99.90
16038;DHT22;8123;50.906;6.172;2022-11-12T02:28:05;5.80;99.90
16038;DHT22;8123;50.906;6.172;2022-11-12T02:30:40;5.90;99.90
16038;DHT22;8123;50.906;6.172;2022-11-12T02:33:06;5.80;99.90
16038;DHT22;8123;50.906;6.172;2022-11-12T02:35:31;5.80;99.90
16038;DHT22;8123;50.906;6.172;2022-11-12T02:37:58;5.90;99.90
16038;DHT22;8123;50.906;6.172;2022-11-12T02:40:23;6.00;99.90
16038;DHT22;8123;50.906;6.172;2022-11-12T02:42:49;6.30;99.90
16038;DHT22;8123;50.906;6.172;2022-11-12T02:45:15;6.00;99.90
16038;DHT22;8123;50.906;6.172;2022-11-12T02:47:41;5.90;99.90
16038;DHT22;8123;50.906;6.172;2022-11-12T02:50:07;5.80;99.90
16038;DHT22;8123;50.906;6.172;2022-11-12T02:52:32;5.90;99.90
16038;DHT22;8123;50.906;6.172;2022-11-12T02:54:59;5.90;99.90
16038;DHT22;8123;50.906;6.172;2022-11-12T02:57:25;6.20;99.90
16038;DHT22;8123;50.906;6.172;2022-11-12T02:59:51;5.80;99.90
16038;DHT22;8123;50.906;6.172;2022-11-12T03:02:17;5.70;99.90
16038;DHT22;8123;50.906;6.172;2022-11-12T03:04:43;5.60;99.90
16038;DHT22;8123;50.906;6.172;2022-11-12T03:07:08;6.00;99.90
16038;DHT22;8123;50.906;6.172;2022-11-12T03:09:34;6.10;99.90
16038;DHT22;8123;50.906;6.172;2022-11-12T03:11:59;5.90;99.90
16038;DHT22;8123;50.906;6.172;2022-11-12T03:14:25;5.80;99.90
16038;DHT22;8123;50.906;6.172;2022-11-12T03:16:51;5.50;99.90
16038;DHT22;8123;50.906;6.172;2022-11-12T03:19:16;5.90;99.90
16038;DHT22;8123;50.906;6.172;2022-11-12T03:21:42;5.50;99.90
16038;DHT22;8123;50.906;6.172;2022-11-12T03:24:07;5.90;99.90
16038;DHT22;8123;50.906;6.172;2022-11-12T03:26:33;5.50;99.90
16038;DHT22;8123;50.906;6.172;2022-11-12T03:28:59;5.50;99.90
16038;DHT22;8123;50.906;6.172;2022-11-12T03:31:25;5.80;99.90
16038;DHT22;8123;50.906;6.172;2022-11-12T03:33:51;5.70;99.90
16038;DHT22;8123;50.906;6.172;2022-11-12T03:36:16;5.30;99.90
16038;DHT22;8123;50.906;6.172;2022-11-12T03:38:42;5.30;99.90
16038;DHT22;8123;50.906;6.172;2022-11-12T03:41:08;5.60;99.90
16038;DHT22;8123;50.906;6.172;2022-11-12T03:43:33;5.30;99.90
16038;DHT22;8123;50.906;6.172;2022-11-12T03:45:59;5.60;99.90
16038;DHT22;8123;50.906;6.172;2022-11-12T03:48:24;5.20;99.90
16038;DHT22;8123;50.906;6.172;2022-11-12T03:50:50;5.20;99.90
16038;DHT22;8123;50.906;6.172;2022-11-12T03:53:16;5.20;99.90
16038;DHT22;8123;50.906;6.172;2022-11-12T03:55:41;5.60;99.90
16038;DHT22;8123;50.906;6.172;2022-11-12T03:58:07;5.70;99.90
16038;DHT22;8123;50.906;6.172;2022-11-12T04:00:33;5.40;99.90
16038;DHT22;8123;50.906;6.172;2022-11-12T04:02:58;5.20;99.90
16038;DHT22;8123;50.906;6.172;2022-11-12T04:05:25;5.20;99.90
16038;DHT22;8123;50.906;6.172;2022-11-12T04:08:13;5.20;99.90
16038;DHT22;8123;50.906;6.172;2022-11-12T04:10:58;5.20;99.90
16038;DHT22;8123;50.906;6.172;2022-11-12T04:13:23;5.30;99.90
16038;DHT22;8123;50.906;6.172;2022-11-12T04:16:16;5.20;99.90
16038;DHT22;8123;50.906;6.172;2022-11-12T04:19:01;5.20;99.90
16038;DHT22;8123;50.906;6.172;2022-11-12T04:21:48;5.20;99.90
16038;DHT22;8123;50.906;6.172;2022-11-12T04:24:33;5.10;99.90
16038;DHT22;8123;50.906;6.172;2022-11-12T04:27:25;5.60;99.90
16038;DHT22;8123;50.906;6.172;2022-11-12T04:29:51;5.20;99.90
16038;DHT22;8123;50.906;6.172;2022-11-12T04:32:38;5.20;99.90
16038;DHT22;8123;50.906;6.172;2022-11-12T04:35:05;5.10;99.90
16038;DHT22;8123;50.906;6.172;2022-11-12T04:37:32;5.10;99.90
16038;DHT22;8123;50.906;6.172;2022-11-12T04:40:25;5.20;99.90
16038;DHT22;8123;50.906;6.172;2022-11-12T04:43:12;5.10;99.90
16038;DHT22;8123;50.906;6.172;2022-11-12T04:45:57;5.30;99.90
16038;DHT22;8123;50.906;6.172;2022-11-12T04:48:23;5.00;99.90
16038;DHT22;8123;50.906;6.172;2022-11-12T04:50:54;5.10;99.90
16038;DHT22;8123;50.906;6.172;2022-11-12T04:53:21;5.00;99.90
16038;DHT22;8123;50.906;6.172;2022-11-12T04:55:51;5.00;99.90
16038;DHT22;8123;50.906;6.172;2022-11-12T04:58:17;5.00;99.90
16038;DHT22;8123;50.906;6.172;2022-11-12T05:00:42;5.00;99.90
16038;DHT22;8123;50.906;6.172;2022-11-12T05:03:08;5.30;99.90
16038;DHT22;8123;50.906;6.172;2022-11-12T05:05:34;5.00;99.90
16038;DHT22;8123;50.906;6.172;2022-11-12T05:08:00;5.50;99.90
16038;DHT22;8123;50.906;6.172;2022-11-12T05:10:26;5.00;99.90
16038;DHT22;8123;50.906;6.172;2022-11-12T05:12:52;5.40;99.90
16038;DHT22;8123;50.906;6.172;2022-11-12T05:15:18;5.00;99.90
16038;DHT22;8123;50.906;6.172;2022-11-12T05:17:44;5.10;99.90
16038;DHT22;8123;50.906;6.172;2022-11-12T05:20:10;5.40;99.90
16038;DHT22;8123;50.906;6.172;2022-11-12T05:22:37;5.00;99.90
16038;DHT22;8123;50.906;6.172;2022-11-12T05:25:03;5.70;99.90
16038;DHT22;8123;50.906;6.172;2022-11-12T05:27:29;5.10;99.90
16038;DHT22;8123;50.906;6.172;2022-11-12T05:29:54;5.30;99.90
16038;DHT22;8123;50.906;6.172;2022-11-12T05:32:20;5.10;99.90
16038;DHT22;8123;50.906;6.172;2022-11-12T05:34:48;5.30;99.90
16038;DHT22;8123;50.906;6.172;2022-11-12T05:37:14;5.10;99.90
16038;DHT22;8123;50.906;6.172;2022-11-12T05:39:40;5.30;99.90
16038;DHT22;8123;50.906;6.172;2022-11-12T05:42:06;5.20;99.90
16038;DHT22;8123;50.906;6.172;2022-11-12T05:44:32;5.10;99.90
16038;DHT22;8123;50.906;6.172;2022-11-12T05:46:58;5.20;99.90
16038;DHT22;8123;50.906;6.172;2022-11-12T05:49:24;5.30;99.90
16038;DHT22;8123;50.906;6.172;2022-11-12T05:51:49;5.50;99.90
16038;DHT22;8123;50.906;6.172;2022-11-12T05:54:16;5.20;99.90
16038;DHT22;8123;50.906;6.172;2022-11-12T05:56:44;5.20;99.90
16038;DHT22;8123;50.906;6.172;2022-11-12T05:59:11;5.40;99.90
16038;DHT22;8123;50.906;6.172;2022-11-12T06:01:39;5.10;99.90
16038;DHT22;8123;50.906;6.172;2022-11-12T06:04:12;5.10;99.90
16038;DHT22;8123;50.906;6.172;2022-11-12T06:06:39;5.00;99.90
16038;DHT22;8123;50.906;6.172;2022-11-12T06:09:05;5.20;99.90
16038;DHT22;8123;50.906;6.172;2022-11-12T06:11:31;5.60;99.90
16038;DHT22;8123;50.906;6.172;2022-11-12T06:13:56;5.50;99.90
16038;DHT22;8123;50.906;6.172;2022-11-12T06:16:22;4.90;99.90
16038;DHT22;8123;50.906;6.172;2022-11-12T06:18:48;5.10;99.90
16038;DHT22;8123;50.906;6.172;2022-11-12T06:21:13;5.30;99.90
16038;DHT22;8123;50.906;6.172;2022-11-12T06:23:47;4.90;99.90
16038;DHT22;8123;50.906;6.172;2022-11-12T06:26:12;5.20;99.90
16038;DHT22;8123;50.906;6.172;2022-11-12T06:28:38;4.90;99.90
16038;DHT22;8123;50.906;6.172;2022-11-12T06:31:09;5.20;99.90
16038;DHT22;8123;50.906;6.172;2022-11-12T06:33:34;5.10;99.90
16038;DHT22;8123;50.906;6.172;2022-11-12T06:36:02;4.80;99.90
16038;DHT22;8123;50.906;6.172;2022-11-12T06:38:32;4.80;99.90
16038;DHT22;8123;50.906;6.172;2022-11-12T06:40:59;4.80;99.90
16038;DHT22;8123;50.906;6.172;2022-11-12T06:43:26;4.80;99.90
16038;DHT22;8123;50.906;6.172;2022-11-12T06:45:58;4.80;99.90
16038;DHT22;8123;50.906;6.172;2022-11-12T06:48:24;4.80;99.90
16038;DHT22;8123;50.906;6.172;2022-11-12T06:50:49;4.80;99.90
16038;DHT22;8123;50.906;6.172;2022-11-12T06:53:15;4.70;99.90
16038;DHT22;8123;50.906;6.172;2022-11-12T06:55:41;4.80;99.90
16038;DHT22;8123;50.906;6.172;2022-11-12T06:58:06;4.90;99.90
16038;DHT22;8123;50.906;6.172;2022-11-12T07:00:32;5.20;99.90
16038;DHT22;8123;50.906;6.172;2022-11-12T07:02:58;5.40;99.90
16038;DHT22;8123;50.906;6.172;2022-11-12T07:05:24;5.00;99.90
16038;DHT22;8123;50.906;6.172;2022-11-12T07:07:50;5.10;99.90
16038;DHT22;8123;50.906;6.172;2022-11-12T07:10:15;5.10;99.90
16038;DHT22;8123;50.906;6.172;2022-11-12T07:12:41;5.20;99.90
16038;DHT22;8123;50.906;6.172;2022-11-12T07:15:07;5.30;99.90
16038;DHT22;8123;50.906;6.172;2022-11-12T07:17:32;5.40;99.90
16038;DHT22;8123;50.906;6.172;2022-11-12T07:19:58;5.50;99.90
16038;DHT22;8123;50.906;6.172;2022-11-12T07:22:25;5.60;99.90
16038;DHT22;8123;50.906;6.172;2022-11-12T07:24:50;6.00;99.90
16038;DHT22;8123;50.906;6.172;2022-11-12T07:27:16;5.70;99.90
16038;DHT22;8123;50.906;6.172;2022-11-12T07:29:42;5.80;99.90
16038;DHT22;8123;50.906;6.172;2022-11-12T07:32:07;5.80;99.90
16038;DHT22;8123;50.906;6.172;2022-11-12T07:34:33;5.80;99.90
16038;DHT22;8123;50.906;6.172;2022-11-12T07:36:58;5.80;99.90
16038;DHT22;8123;50.906;6.172;2022-11-12T07:39:24;6.00;99.90
16038;DHT22;8123;50.906;6.172;2022-11-12T07:41:50;6.00;99.90
16038;DHT22;8123;50.906;6.172;2022-11-12T07:44:16;6.20;99.90
16038;DHT22;8123;50.906;6.172;2022-11-12T07:46:41;6.30;99.90
16038;DHT22;8123;50.906;6.172;2022-11-12T07:49:07;6.20;99.90
16038;DHT22;8123;50.906;6.172;2022-11-12T07:51:33;6.20;99.90
16038;DHT22;8123;50.906;6.172;2022-11-12T07:53:58;6.20;99.90
16038;DHT22;8123;50.906;6.172;2022-11-12T07:56:25;6.30;99.90
16038;DHT22;8123;50.906;6.172;2022-11-12T07:58:51;6.60;99.90
16038;DHT22;8123;50.906;6.172;2022-11-12T08:01:27;6.40;99.90
16038;DHT22;8123;50.906;6.172;2022-11-12T08:04:02;6.40;99.90
16038;DHT22;8123;50.906;6.172;2022-11-12T08:06:29;6.80;99.90
16038;DHT22;8123;50.906;6.172;2022-11-12T08:08:55;6.70;99.90
16038;DHT22;8123;50.906;6.172;2022-11-12T08:11:22;6.60;99.90
16038;DHT22;8123;50.906;6.172;2022-11-12T08:13:48;7.00;99.90
16038;DHT22;8123;50.906;6.172;2022-11-12T08:16:14;7.30;99.90
16038;DHT22;8123;50.906;6.172;2022-11-12T08:18:40;6.80;99.90
16038;DHT22;8123;50.906;6.172;2022-11-12T08:21:09;7.00;99.90
16038;DHT22;8123;50.906;6.172;2022-11-12T08:23:35;7.30;99.90
16038;DHT22;8123;50.906;6.172;2022-11-12T08:26:03;7.40;99.90
16038;DHT22;8123;50.906;6.172;2022-11-12T08:28:30;7.20;99.90
16038;DHT22;8123;50.906;6.172;2022-11-12T08:30:56;7.30;99.90
16038;DHT22;8123;50.906;6.172;2022-11-12T08:33:22;7.30;99.90
16038;DHT22;8123;50.906;6.172;2022-11-12T08:35:47;7.60;99.90
16038;DHT22;8123;50.906;6.172;2022-11-12T08:38:13;7.40;99.90
16038;DHT22;8123;50.906;6.172;2022-11-12T08:40:39;7.80;99.90
16038;DHT22;8123;50.906;6.172;2022-11-12T08:43:08;7.60;99.90
16038;DHT22;8123;50.906;6.172;2022-11-12T08:45:36;8.10;99.90
16038;DHT22;8123;50.906;6.172;2022-11-12T08:48:08;7.70;99.90
16038;DHT22;8123;50.906;6.172;2022-11-12T08:50:34;7.80;99.90
16038;DHT22;8123;50.906;6.172;2022-11-12T08:53:06;7.80;99.90
16038;DHT22;8123;50.906;6.172;2022-11-12T08:55:32;8.20;99.90
16038;DHT22;8123;50.906;6.172;2022-11-12T08:57:59;8.00;99.90
16038;DHT22;8123;50.906;6.172;2022-11-12T09:00:31;8.10;99.90
16038;DHT22;8123;50.906;6.172;2022-11-12T09:03:02;8.10;99.90
16038;DHT22;8123;50.906;6.172;2022-11-12T09:05:28;8.40;99.90
16038;DHT22;8123;50.906;6.172;2022-11-12T09:08:03;8.20;99.90
16038;DHT22;8123;50.906;6.172;2022-11-12T09:10:29;8.30;99.90
16038;DHT22;8123;50.906;6.172;2022-11-12T09:12:55;8.50;99.90
16038;DHT22;8123;50.906;6.172;2022-11-12T09:15:22;8.70;99.90
16038;DHT22;8123;50.906;6.172;2022-11-12T09:18:00;8.60;99.90
16038;DHT22;8123;50.906;6.172;2022-11-12T09:20:27;8.60;99.90
16038;DHT22;8123;50.906;6.172;2022-11-12T09:22:57;8.60;99.90
16038;DHT22;8123;50.906;6.172;2022-11-12T09:25:22;8.90;99.90
16038;DHT22;8123;50.906;6.172;2022-11-12T09:27:48;9.10;99.90
16038;DHT22;8123;50.906;6.172;2022-11-12T09:30:14;8.80;99.90
16038;DHT22;8123;50.906;6.172;2022-11-12T09:32:40;8.90;99.90
16038;DHT22;8123;50.906;6.172;2022-11-12T09:35:06;9.00;99.90
16038;DHT22;8123;50.906;6.172;2022-11-12T09:37:32;9.00;99.90
16038;DHT22;8123;50.906;6.172;2022-11-12T09:39:57;9.10;99.90
16038;DHT22;8123;50.906;6.172;2022-11-12T09:42:24;9.50;99.90
16038;DHT22;8123;50.906;6.172;2022-11-12T09:44:56;9.40;99.90
16038;DHT22;8123;50.906;6.172;2022-11-12T09:49:59;9.40;99.90
16038;DHT22;8123;50.906;6.172;2022-11-12T09:52:29;9.50;99.90
16038;DHT22;8123;50.906;6.172;2022-11-12T09:55:07;9.50;99.90
16038;DHT22;8123;50.906;6.172;2022-11-12T09:57:34;9.60;99.90
16038;DHT22;8123;50.906;6.172;2022-11-12T10:00:00;9.60;99.90
16038;DHT22;8123;50.906;6.172;2022-11-12T10:02:31;9.70;99.90
16038;DHT22;8123;50.906;6.172;2022-11-12T10:05:35;9.70;99.90
16038;DHT22;8123;50.906;6.172;2022-11-12T10:08:25;9.80;99.90
16038;DHT22;8123;50.906;6.172;2022-11-12T10:16:36;10.00;99.90
16038;DHT22;8123;50.906;6.172;2022-11-12T10:24:41;10.30;99.90
16038;DHT22;8123;50.906;6.172;2022-11-12T10:27:21;10.60;99.90
16038;DHT22;8123;50.906;6.172;2022-11-12T10:32:21;10.30;99.90
16038;DHT22;8123;50.906;6.172;2022-11-12T10:34:47;10.40;99.90
16038;DHT22;8123;50.906;6.172;2022-11-12T10:42:57;10.60;99.90
16038;DHT22;8123;50.906;6.172;2022-11-12T10:45:23;10.60;99.90
16038;DHT22;8123;50.906;6.172;2022-11-12T10:47:49;10.70;99.90
16038;DHT22;8123;50.906;6.172;2022-11-12T10:55:27;10.80;99.90
16038;DHT22;8123;50.906;6.172;2022-11-12T11:00:37;11.00;99.90
16038;DHT22;8123;50.906;6.172;2022-11-12T11:03:20;11.10;99.90
16038;DHT22;8123;50.906;6.172;2022-11-12T11:08:36;11.50;99.90
16038;DHT22;8123;50.906;6.172;2022-11-12T11:13:44;11.30;99.90
16038;DHT22;8123;50.906;6.172;2022-11-12T11:16:18;11.40;99.90
16038;DHT22;8123;50.906;6.172;2022-11-12T11:18:56;11.40;99.90
16038;DHT22;8123;50.906;6.172;2022-11-12T11:21:39;11.40;99.90
16038;DHT22;8123;50.906;6.172;2022-11-12T11:41:20;11.70;99.90
16038;DHT22;8123;50.906;6.172;2022-11-12T11:49:45;11.90;99.90
16038;DHT22;8123;50.906;6.172;2022-11-12T11:57:51;11.90;99.90
16038;DHT22;8123;50.906;6.172;2022-11-12T12:00:21;11.90;99.90
16038;DHT22;8123;50.906;6.172;2022-11-12T12:05:42;12.00;99.90
16038;DHT22;8123;50.906;6.172;2022-11-12T12:21:50;12.20;99.90
16038;DHT22;8123;50.906;6.172;2022-11-12T12:24:29;12.20;99.90
16038;DHT22;8123;50.906;6.172;2022-11-12T12:27:07;12.30;99.90
16038;DHT22;8123;50.906;6.172;2022-11-12T12:29:41;12.20;99.90
16038;DHT22;8123;50.906;6.172;2022-11-12T12:32:25;12.30;99.90
16038;DHT22;8123;50.906;6.172;2022-11-12T12:34:56;12.30;99.90
16038;DHT22;8123;50.906;6.172;2022-11-12T12:37:55;12.30;99.90
16038;DHT22;8123;50.906;6.172;2022-11-12T12:40:28;12.30;99.90
16038;DHT22;8123;50.906;6.172;2022-11-12T12:43:26;12.40;99.90
16038;DHT22;8123;50.906;6.172;2022-11-12T12:45:53;12.40;99.90
16038;DHT22;8123;50.906;6.172;2022-11-12T12:48:26;12.40;99.90
16038;DHT22;8123;50.906;6.172;2022-11-12T12:50:53;12.50;99.90
16038;DHT22;8123;50.906;6.172;2022-11-12T12:55:54;12.50;99.90
16038;DHT22;8123;50.906;6.172;2022-11-12T12:58:26;12.50;99.90
16038;DHT22;8123;50.906;6.172;2022-11-12T13:01:24;12.50;99.90
16038;DHT22;8123;50.906;6.172;2022-11-12T13:06:30;12.50;99.90
16038;DHT22;8123;50.906;6.172;2022-11-12T13:17:09;12.60;99.90
16038;DHT22;8123;50.906;6.172;2022-11-12T13:38:01;12.70;99.90
16038;DHT22;8123;50.906;6.172;2022-11-12T13:40:49;12.70;99.90
16038;DHT22;8123;50.906;6.172;2022-11-12T13:51:48;12.70;99.90
16038;DHT22;8123;50.906;6.172;2022-11-12T13:54:30;12.70;99.90
16038;DHT22;8123;50.906;6.172;2022-11-12T13:57:32;12.70;99.90
16038;DHT22;8123;50.906;6.172;2022-11-12T14:02:56;12.70;99.90
16038;DHT22;8123;50.906;6.172;2022-11-12T14:05:31;12.80;99.90
16038;DHT22;8123;50.906;6.172;2022-11-12T14:10:59;12.70;99.90
16038;DHT22;8123;50.906;6.172;2022-11-12T14:21:21;12.60;99.90
16038;DHT22;8123;50.906;6.172;2022-11-12T14:23:48;12.60;99.90
16038;DHT22;8123;50.906;6.172;2022-11-12T14:26:37;12.60;99.90
16038;DHT22;8123;50.906;6.172;2022-11-12T14:29:03;12.50;99.90
16038;DHT22;8123;50.906;6.172;2022-11-12T14:31:29;12.50;99.90
16038;DHT22;8123;50.906;6.172;2022-11-12T14:33:55;12.50;99.90
16038;DHT22;8123;50.906;6.172;2022-11-12T14:36:21;12.50;99.90
16038;DHT22;8123;50.906;6.172;2022-11-12T14:38:51;12.60;99.90
16038;DHT22;8123;50.906;6.172;2022-11-12T14:41:23;12.60;99.90
16038;DHT22;8123;50.906;6.172;2022-11-12T14:43:52;12.50;99.90
16038;DHT22;8123;50.906;6.172;2022-11-12T14:46:28;12.50;99.90
16038;DHT22;8123;50.906;6.172;2022-11-12T14:49:03;12.50;99.90
16038;DHT22;8123;50.906;6.172;2022-11-12T14:51:31;12.40;99.90
16038;DHT22;8123;50.906;6.172;2022-11-12T14:54:06;12.40;99.90
16038;DHT22;8123;50.906;6.172;2022-11-12T14:59:03;12.30;99.90
16038;DHT22;8123;50.906;6.172;2022-11-12T15:01:34;12.30;99.90
16038;DHT22;8123;50.906;6.172;2022-11-12T15:04:20;12.30;99.90
16038;DHT22;8123;50.906;6.172;2022-11-12T15:06:54;12.20;99.90
16038;DHT22;8123;50.906;6.172;2022-11-12T15:09:37;12.20;99.90
16038;DHT22;8123;50.906;6.172;2022-11-12T15:12:11;12.10;99.90
16038;DHT22;8123;50.906;6.172;2022-11-12T15:14:43;12.10;99.90
16038;DHT22;8123;50.906;6.172;2022-11-12T15:17:31;12.10;99.90
16038;DHT22;8123;50.906;6.172;2022-11-12T15:20:05;12.00;99.90
16038;DHT22;8123;50.906;6.172;2022-11-12T15:22:36;12.00;99.90
16038;DHT22;8123;50.906;6.172;2022-11-12T15:27:43;11.90;99.90
16038;DHT22;8123;50.906;6.172;2022-11-12T15:30:24;12.00;99.90
16038;DHT22;8123;50.906;6.172;2022-11-12T15:35:42;11.70;99.90
16038;DHT22;8123;50.906;6.172;2022-11-12T15:38:32;11.70;99.90
16038;DHT22;8123;50.906;6.172;2022-11-12T15:41:03;11.80;99.90
16038;DHT22;8123;50.906;6.172;2022-11-12T15:43:34;11.50;99.90
16038;DHT22;8123;50.906;6.172;2022-11-12T15:46:01;11.70;99.90
16038;DHT22;8123;50.906;6.172;2022-11-12T15:48:27;11.50;99.90
16038;DHT22;8123;50.906;6.172;2022-11-12T15:50:53;11.40;99.90
16038;DHT22;8123;50.906;6.172;2022-11-12T15:53:19;11.40;99.90
16038;DHT22;8123;50.906;6.172;2022-11-12T15:55:45;11.40;99.90
16038;DHT22;8123;50.906;6.172;2022-11-12T15:58:18;11.30;99.90
16038;DHT22;8123;50.906;6.172;2022-11-12T16:00:45;11.20;99.90
16038;DHT22;8123;50.906;6.172;2022-11-12T16:03:18;11.20;99.90
16038;DHT22;8123;50.906;6.172;2022-11-12T16:05:44;11.20;99.90
16038;DHT22;8123;50.906;6.172;2022-11-12T16:08:11;11.10;99.90
16038;DHT22;8123;50.906;6.172;2022-11-12T16:10:38;11.10;99.90
16038;DHT22;8123;50.906;6.172;2022-11-12T16:13:09;11.00;99.90
16038;DHT22;8123;50.906;6.172;2022-11-12T16:15:36;11.00;99.90
16038;DHT22;8123;50.906;6.172;2022-11-12T16:18:02;11.00;99.90
16038;DHT22;8123;50.906;6.172;2022-11-12T16:20:28;10.90;99.90
16038;DHT22;8123;50.906;6.172;2022-11-12T16:22:56;10.80;99.90
16038;DHT22;8123;50.906;6.172;2022-11-12T16:25:24;10.80;99.90
16038;DHT22;8123;50.906;6.172;2022-11-12T16:27:50;10.70;99.90
16038;DHT22;8123;50.906;6.172;2022-11-12T16:30:21;10.80;99.90
16038;DHT22;8123;50.906;6.172;2022-11-12T16:32:48;10.80;99.90
16038;DHT22;8123;50.906;6.172;2022-11-12T16:35:14;10.80;99.90
16038;DHT22;8123;50.906;6.172;2022-11-12T16:37:43;10.80;99.90
16038;DHT22;8123;50.906;6.172;2022-11-12T16:40:22;10.70;99.90
16038;DHT22;8123;50.906;6.172;2022-11-12T16:42:48;10.70;99.90
16038;DHT22;8123;50.906;6.172;2022-11-12T16:45:16;10.70;99.90
16038;DHT22;8123;50.906;6.172;2022-11-12T16:47:47;10.70;99.90
16038;DHT22;8123;50.906;6.172;2022-11-12T16:50:16;10.60;99.90
16038;DHT22;8123;50.906;6.172;2022-11-12T16:52:42;10.60;99.90
16038;DHT22;8123;50.906;6.172;2022-11-12T16:55:09;10.60;99.90
16038;DHT22;8123;50.906;6.172;2022-11-12T16:57:35;10.50;99.90
16038;DHT22;8123;50.906;6.172;2022-11-12T17:00:01;10.50;99.90
16038;DHT22;8123;50.906;6.172;2022-11-12T17:02:27;10.40;99.90
16038;DHT22;8123;50.906;6.172;2022-11-12T17:04:52;10.60;99.90
16038;DHT22;8123;50.906;6.172;2022-11-12T17:07:18;10.40;99.90
16038;DHT22;8123;50.906;6.172;2022-11-12T17:09:44;10.30;99.90
16038;DHT22;8123;50.906;6.172;2022-11-12T17:12:09;10.40;99.90
16038;DHT22;8123;50.906;6.172;2022-11-12T17:14:35;10.40;99.90
16038;DHT22;8123;50.906;6.172;2022-11-12T17:17:00;10.40;99.90
16038;DHT22;8123;50.906;6.172;2022-11-12T17:19:26;10.40;99.90
16038;DHT22;8123;50.906;6.172;2022-11-12T17:21:52;10.40;99.90
16038;DHT22;8123;50.906;6.172;2022-11-12T17:24:18;10.30;99.90
16038;DHT22;8123;50.906;6.172;2022-11-12T17:26:44;10.30;99.90
16038;DHT22;8123;50.906;6.172;2022-11-12T17:29:10;10.30;99.90
16038;DHT22;8123;50.906;6.172;2022-11-12T17:31:36;10.20;99.90
16038;DHT22;8123;50.906;6.172;2022-11-12T17:34:04;10.20;99.90
16038;DHT22;8123;50.906;6.172;2022-11-12T17:36:29;10.20;99.90
16038;DHT22;8123;50.906;6.172;2022-11-12T17:38:57;10.10;99.90
16038;DHT22;8123;50.906;6.172;2022-11-12T17:41:24;10.20;99.90
16038;DHT22;8123;50.906;6.172;2022-11-12T17:43:54;10.20;99.90
16038;DHT22;8123;50.906;6.172;2022-11-12T17:46:20;10.20;99.90
16038;DHT22;8123;50.906;6.172;2022-11-12T17:48:46;10.30;99.90
16038;DHT22;8123;50.906;6.172;2022-11-12T17:51:14;10.30;99.90
16038;DHT22;8123;50.906;6.172;2022-11-12T17:53:40;10.40;99.90
16038;DHT22;8123;50.906;6.172;2022-11-12T17:56:10;10.60;99.90
16038;DHT22;8123;50.906;6.172;2022-11-12T17:58:36;10.50;99.90
16038;DHT22;8123;50.906;6.172;2022-11-12T18:01:10;10.60;99.90
16038;DHT22;8123;50.906;6.172;2022-11-12T18:03:41;10.60;99.90
16038;DHT22;8123;50.906;6.172;2022-11-12T18:06:13;10.60;99.90
16038;DHT22;8123;50.906;6.172;2022-11-12T18:08:40;10.60;99.90
16038;DHT22;8123;50.906;6.172;2022-11-12T18:11:07;11.00;99.90
16038;DHT22;8123;50.906;6.172;2022-11-12T18:13:33;10.60;99.90
16038;DHT22;8123;50.906;6.172;2022-11-12T18:15:58;10.80;99.90
16038;DHT22;8123;50.906;6.172;2022-11-12T18:18:26;10.70;99.90
16038;DHT22;8123;50.906;6.172;2022-11-12T18:20:52;10.90;99.90
16038;DHT22;8123;50.906;6.172;2022-11-12T18:23:18;10.70;99.90
16038;DHT22;8123;50.906;6.172;2022-11-12T18:25:44;10.60;99.90
16038;DHT22;8123;50.906;6.172;2022-11-12T18:28:10;10.60;99.90